Bookmark and Share
Track history (hours):
 

An Run Da 2

Last reported at 2014-Apr-23 16:28 UTC. Time now 2014-Apr-24 05:48 UTC.
Position N 31°03' E 122°09'.

Length 147 m; draft 5.1 m.

Type: Cargo ship. MMSI: 413360230.

NotesDate/timePositionNaut miles runAvg speedWind from/ knotsBaromVisibWave heightAir tempDewpointWater temp
2014-Apr-23 16:28N 31°03' E 122°09'1010.4
2014-Apr-23 15:32N 31°06' E 121°58'1210.8
2014-Apr-23 14:28N 31°14' E 121°47'1010.1
2014-Apr-23 13:30N 31°21' E 121°40'9 9.3
2014-Apr-23 12:33N 31°25' E 121°31'8 7.5
2014-Apr-23 11:33N 31°30' E 121°24'9 8.6
2014-Apr-23 10:32N 31°36' E 121°17'10 9.8
2014-Apr-23 09:33N 31°42' E 121°08'1010.5
2014-Apr-23 08:33N 31°47' E 120°57'1110.5
2014-Apr-23 07:33N 31°56' E 120°52'9 9.2
2014-Apr-23 06:33N 32°00' E 120°42'7 7.3
2014-Apr-23 05:33N 32°00' E 120°33'0 0.0
2014-Apr-23 04:30N 32°00' E 120°33'0 0.0
2014-Apr-23 03:33N 32°00' E 120°33'0 0.0
2014-Apr-23 02:30N 32°00' E 120°33'0 0.0
2014-Apr-23 01:33N 32°00' E 120°33'0 0.0
2014-Apr-23 00:30N 32°00' E 120°33'0 0.0
2014-Apr-22 23:33N 32°00' E 120°33'0 0.0
2014-Apr-22 22:33N 32°00' E 120°33'0 0.0
2014-Apr-22 21:32N 32°00' E 120°33'0 0.0
2014-Apr-22 20:32N 32°00' E 120°33'0 0.0
2014-Apr-22 19:32N 32°00' E 120°33'0 0.0
2014-Apr-22 18:32N 32°00' E 120°33'0 0.0
2014-Apr-22 17:32N 32°00' E 120°33'0 0.0
2014-Apr-22 16:32N 32°00' E 120°33'0 0.0
2014-Apr-22 15:33N 32°00' E 120°33'0 0.0
2014-Apr-22 14:29N 32°00' E 120°33'0 0.0
2014-Apr-22 13:29N 32°00' E 120°33'0 0.0
2014-Apr-22 12:32N 32°00' E 120°33'0 0.0
2014-Apr-22 11:28N 32°00' E 120°33'0 0.0
2014-Apr-22 10:22N 32°00' E 120°33'0 0.0
2014-Apr-22 09:22N 32°00' E 120°33'0 0.0
2014-Apr-22 08:31N 32°00' E 120°33'0 0.0
2014-Apr-22 07:31N 32°00' E 120°33'0 0.0
2014-Apr-22 06:31N 32°00' E 120°33'0 0.0
2014-Apr-22 05:31N 32°00' E 120°33'0 0.0
2014-Apr-22 04:31N 32°00' E 120°33'0 0.0
2014-Apr-22 03:31N 32°00' E 120°33'0 0.0
2014-Apr-22 02:25N 32°00' E 120°33'0 0.0
2014-Apr-22 01:31N 32°00' E 120°33'0 0.0
2014-Apr-22 00:33N 32°00' E 120°33'0 0.0
2014-Apr-21 23:30N 32°00' E 120°33'0 0.0
2014-Apr-21 22:33N 32°00' E 120°33'0 0.0
2014-Apr-21 21:33N 32°00' E 120°33'0 0.0
2014-Apr-21 20:33N 32°00' E 120°33'0 0.0
2014-Apr-21 19:33N 32°00' E 120°33'0 0.0
2014-Apr-21 18:33N 32°00' E 120°33'0 0.0
2014-Apr-21 17:27N 32°00' E 120°33'0 0.0
2014-Apr-21 16:33N 32°00' E 120°33'0 0.0
2014-Apr-21 15:31N 32°00' E 120°33'0 0.0
2014-Apr-21 14:16N 32°00' E 120°33'0 0.0
2014-Apr-21 13:31N 32°00' E 120°33'0 0.0
2014-Apr-21 12:28N 32°00' E 120°33'0 0.0
2014-Apr-21 11:30N 32°00' E 120°33'0 0.0
2014-Apr-21 10:27N 32°00' E 120°33'0 0.0
2014-Apr-21 09:32N 32°00' E 120°33'0 0.0
2014-Apr-21 08:23N 32°00' E 120°33'0 0.0
2014-Apr-21 07:32N 32°00' E 120°33'0 0.0
2014-Apr-21 06:17N 32°00' E 120°33'0 0.0
2014-Apr-21 05:32N 32°00' E 120°33'0 0.0
2014-Apr-21 04:26N 32°00' E 120°33'0 0.0
2014-Apr-21 03:23N 32°00' E 120°33'0 0.0
2014-Apr-21 02:33N 32°00' E 120°33'0 0.0
2014-Apr-21 01:33N 32°00' E 120°33'0 0.0
2014-Apr-20 23:28N 32°00' E 120°33'0 0.0
2014-Apr-20 22:33N 32°00' E 120°33'0 0.0
2014-Apr-20 21:33N 32°00' E 120°33'0 0.0
2014-Apr-20 20:27N 32°00' E 120°33'0 0.0
2014-Apr-20 19:33N 32°00' E 120°33'0 0.0
2014-Apr-20 18:30N 32°00' E 120°33'0 0.0
2014-Apr-20 17:16N 32°00' E 120°33'0 0.0
2014-Apr-20 16:33N 32°00' E 120°33'0 0.0
2014-Apr-20 15:31N 32°00' E 120°33'0 0.0
2014-Apr-20 14:33N 32°00' E 120°33'1 1.5
2014-Apr-20 13:33N 32°00' E 120°35'8 7.6
2014-Apr-20 12:33N 32°01' E 120°44'15 7.5
2014-Apr-20 10:32N 31°49' E 120°55'320 6.3
2014-Apr-18 08:03N 36°56' E 122°45'2810.7
2014-Apr-18 05:23N 37°24' E 122°46'910.8
2014-Apr-18 04:32N 37°32' E 122°41'1110.0
2014-Apr-18 03:26N 37°39' E 122°30'11 8.8
2014-Apr-18 02:13N 37°46' E 122°19'6 8.4
2014-Apr-18 01:29N 37°50' E 122°13'  
2014-Apr-15 00:31N 37°49' E 122°22'4010.1
2014-Apr-14 20:31N 37°16' E 122°52'1211.6
2014-Apr-14 19:30N 37°05' E 122°53'1011.0
2014-Apr-14 18:34N 36°54' E 122°52'3010.0
2014-Apr-14 15:33N 36°24' E 122°51'10 9.8
2014-Apr-14 14:33N 36°14' E 122°51'  

Dump ship's entire track history

sailing weather and tide predictions

An Run Da 2 — BHNX — position and weather